sensor_id;sensor_type;location;lat;lon;timestamp;P1;durP1;ratioP1;P2;durP2;ratioP2
1344;SDS011;15375;48.540;9.268;2024-02-28T00:00:09;27.63;;;18.77;;
1344;SDS011;15375;48.540;9.268;2024-02-28T00:02:35;27.63;;;18.03;;
1344;SDS011;15375;48.540;9.268;2024-02-28T00:05:01;25.87;;;18.97;;
1344;SDS011;15375;48.540;9.268;2024-02-28T00:07:26;32.60;;;19.03;;
1344;SDS011;15375;48.540;9.268;2024-02-28T00:09:52;32.93;;;18.53;;
1344;SDS011;15375;48.540;9.268;2024-02-28T00:12:17;22.90;;;18.07;;
1344;SDS011;15375;48.540;9.268;2024-02-28T00:14:42;27.87;;;18.57;;
1344;SDS011;15375;48.540;9.268;2024-02-28T00:17:08;29.80;;;19.43;;
1344;SDS011;15375;48.540;9.268;2024-02-28T00:19:33;30.60;;;19.80;;
1344;SDS011;15375;48.540;9.268;2024-02-28T00:21:58;33.37;;;20.33;;
1344;SDS011;15375;48.540;9.268;2024-02-28T00:24:25;29.43;;;19.20;;
1344;SDS011;15375;48.540;9.268;2024-02-28T00:26:50;31.23;;;19.97;;
1344;SDS011;15375;48.540;9.268;2024-02-28T00:29:16;30.00;;;19.17;;
1344;SDS011;15375;48.540;9.268;2024-02-28T00:31:41;32.43;;;21.77;;
1344;SDS011;15375;48.540;9.268;2024-02-28T00:34:06;29.57;;;22.10;;
1344;SDS011;15375;48.540;9.268;2024-02-28T00:36:33;33.80;;;19.90;;
1344;SDS011;15375;48.540;9.268;2024-02-28T00:38:59;28.90;;;18.83;;
1344;SDS011;15375;48.540;9.268;2024-02-28T00:41:24;34.67;;;19.57;;
1344;SDS011;15375;48.540;9.268;2024-02-28T00:43:49;27.63;;;19.63;;
1344;SDS011;15375;48.540;9.268;2024-02-28T00:46:15;32.40;;;19.97;;
1344;SDS011;15375;48.540;9.268;2024-02-28T00:48:40;28.33;;;18.50;;
1344;SDS011;15375;48.540;9.268;2024-02-28T00:51:06;30.10;;;19.23;;
1344;SDS011;15375;48.540;9.268;2024-02-28T00:53:33;32.90;;;20.30;;
1344;SDS011;15375;48.540;9.268;2024-02-28T00:55:58;32.30;;;21.97;;
1344;SDS011;15375;48.540;9.268;2024-02-28T00:58:24;27.67;;;19.00;;
1344;SDS011;15375;48.540;9.268;2024-02-28T01:00:51;32.57;;;20.10;;
1344;SDS011;15375;48.540;9.268;2024-02-28T01:03:16;34.07;;;22.27;;
1344;SDS011;15375;48.540;9.268;2024-02-28T01:05:43;27.23;;;19.57;;
1344;SDS011;15375;48.540;9.268;2024-02-28T01:08:08;32.00;;;20.10;;
1344;SDS011;15375;48.540;9.268;2024-02-28T01:10:34;31.10;;;20.17;;
1344;SDS011;15375;48.540;9.268;2024-02-28T01:12:59;26.87;;;18.97;;
1344;SDS011;15375;48.540;9.268;2024-02-28T01:15:25;40.40;;;19.10;;
1344;SDS011;15375;48.540;9.268;2024-02-28T01:17:51;28.00;;;17.53;;
1344;SDS011;15375;48.540;9.268;2024-02-28T01:20:16;28.03;;;18.33;;
1344;SDS011;15375;48.540;9.268;2024-02-28T01:22:41;32.60;;;19.73;;
1344;SDS011;15375;48.540;9.268;2024-02-28T01:25:07;27.87;;;19.27;;
1344;SDS011;15375;48.540;9.268;2024-02-28T01:27:32;29.10;;;19.57;;
1344;SDS011;15375;48.540;9.268;2024-02-28T01:29:58;28.37;;;17.87;;
1344;SDS011;15375;48.540;9.268;2024-02-28T01:32:23;30.23;;;19.30;;
1344;SDS011;15375;48.540;9.268;2024-02-28T01:34:48;33.07;;;19.97;;
1344;SDS011;15375;48.540;9.268;2024-02-28T01:37:14;34.00;;;20.93;;
1344;SDS011;15375;48.540;9.268;2024-02-28T01:39:39;31.10;;;20.90;;
1344;SDS011;15375;48.540;9.268;2024-02-28T01:42:05;28.10;;;19.10;;
1344;SDS011;15375;48.540;9.268;2024-02-28T01:44:30;33.97;;;21.77;;
1344;SDS011;15375;48.540;9.268;2024-02-28T01:46:56;29.73;;;18.73;;
1344;SDS011;15375;48.540;9.268;2024-02-28T01:49:23;32.93;;;19.80;;
1344;SDS011;15375;48.540;9.268;2024-02-28T01:51:49;35.83;;;19.10;;
1344;SDS011;15375;48.540;9.268;2024-02-28T01:54:16;33.63;;;20.27;;
1344;SDS011;15375;48.540;9.268;2024-02-28T01:56:43;32.03;;;20.97;;
1344;SDS011;15375;48.540;9.268;2024-02-28T01:59:09;28.47;;;19.60;;
1344;SDS011;15375;48.540;9.268;2024-02-28T02:01:36;30.40;;;20.97;;
1344;SDS011;15375;48.540;9.268;2024-02-28T02:04:02;35.43;;;21.20;;
1344;SDS011;15375;48.540;9.268;2024-02-28T02:06:28;31.27;;;19.97;;
1344;SDS011;15375;48.540;9.268;2024-02-28T02:08:54;32.90;;;20.37;;
1344;SDS011;15375;48.540;9.268;2024-02-28T02:11:20;28.07;;;18.60;;
1344;SDS011;15375;48.540;9.268;2024-02-28T02:13:47;31.10;;;19.00;;
1344;SDS011;15375;48.540;9.268;2024-02-28T02:16:16;30.20;;;20.20;;
1344;SDS011;15375;48.540;9.268;2024-02-28T02:18:43;31.70;;;19.67;;
1344;SDS011;15375;48.540;9.268;2024-02-28T02:21:08;32.23;;;20.80;;
1344;SDS011;15375;48.540;9.268;2024-02-28T02:23:36;34.00;;;21.63;;
1344;SDS011;15375;48.540;9.268;2024-02-28T02:26:06;28.93;;;18.93;;
1344;SDS011;15375;48.540;9.268;2024-02-28T02:28:32;29.07;;;20.37;;
1344;SDS011;15375;48.540;9.268;2024-02-28T02:30:57;30.20;;;19.27;;
1344;SDS011;15375;48.540;9.268;2024-02-28T02:33:22;33.17;;;21.97;;
1344;SDS011;15375;48.540;9.268;2024-02-28T02:35:48;34.30;;;20.33;;
1344;SDS011;15375;48.540;9.268;2024-02-28T02:38:13;30.83;;;20.10;;
1344;SDS011;15375;48.540;9.268;2024-02-28T02:40:38;26.47;;;19.27;;
1344;SDS011;15375;48.540;9.268;2024-02-28T02:43:04;29.60;;;19.77;;
1344;SDS011;15375;48.540;9.268;2024-02-28T02:45:29;34.47;;;22.20;;
1344;SDS011;15375;48.540;9.268;2024-02-28T02:47:54;35.67;;;22.03;;
1344;SDS011;15375;48.540;9.268;2024-02-28T02:50:20;30.23;;;19.57;;
1344;SDS011;15375;48.540;9.268;2024-02-28T02:52:45;32.37;;;19.87;;
1344;SDS011;15375;48.540;9.268;2024-02-28T02:55:10;32.83;;;19.67;;
1344;SDS011;15375;48.540;9.268;2024-02-28T02:57:36;30.63;;;18.23;;
1344;SDS011;15375;48.540;9.268;2024-02-28T03:00:01;35.60;;;21.20;;
1344;SDS011;15375;48.540;9.268;2024-02-28T03:02:27;29.10;;;19.50;;
1344;SDS011;15375;48.540;9.268;2024-02-28T03:04:53;34.67;;;20.50;;
1344;SDS011;15375;48.540;9.268;2024-02-28T03:07:18;29.60;;;19.87;;
1344;SDS011;15375;48.540;9.268;2024-02-28T03:09:43;31.93;;;20.33;;
1344;SDS011;15375;48.540;9.268;2024-02-28T03:12:09;27.13;;;18.67;;
1344;SDS011;15375;48.540;9.268;2024-02-28T03:14:37;28.87;;;19.17;;
1344;SDS011;15375;48.540;9.268;2024-02-28T03:17:02;28.53;;;18.97;;
1344;SDS011;15375;48.540;9.268;2024-02-28T03:19:28;24.93;;;19.13;;
1344;SDS011;15375;48.540;9.268;2024-02-28T03:21:54;27.40;;;19.60;;
1344;SDS011;15375;48.540;9.268;2024-02-28T03:24:19;28.63;;;17.80;;
1344;SDS011;15375;48.540;9.268;2024-02-28T03:26:45;30.13;;;18.23;;
1344;SDS011;15375;48.540;9.268;2024-02-28T03:29:10;29.50;;;19.90;;
1344;SDS011;15375;48.540;9.268;2024-02-28T03:31:35;34.70;;;21.07;;
1344;SDS011;15375;48.540;9.268;2024-02-28T03:34:01;29.60;;;19.23;;
1344;SDS011;15375;48.540;9.268;2024-02-28T03:36:27;28.67;;;18.40;;
1344;SDS011;15375;48.540;9.268;2024-02-28T03:38:53;33.43;;;19.77;;
1344;SDS011;15375;48.540;9.268;2024-02-28T03:41:19;35.80;;;21.43;;
1344;SDS011;15375;48.540;9.268;2024-02-28T03:43:44;30.33;;;20.53;;
1344;SDS011;15375;48.540;9.268;2024-02-28T03:46:09;34.97;;;21.00;;
1344;SDS011;15375;48.540;9.268;2024-02-28T03:48:35;30.77;;;20.10;;
1344;SDS011;15375;48.540;9.268;2024-02-28T03:51:00;31.20;;;20.87;;
1344;SDS011;15375;48.540;9.268;2024-02-28T03:53:25;33.73;;;21.10;;
1344;SDS011;15375;48.540;9.268;2024-02-28T03:55:51;33.40;;;22.53;;
1344;SDS011;15375;48.540;9.268;2024-02-28T03:58:16;33.80;;;21.30;;
1344;SDS011;15375;48.540;9.268;2024-02-28T04:00:42;30.80;;;21.20;;
1344;SDS011;15375;48.540;9.268;2024-02-28T04:03:09;30.87;;;21.17;;
1344;SDS011;15375;48.540;9.268;2024-02-28T04:05:35;37.07;;;20.37;;
1344;SDS011;15375;48.540;9.268;2024-02-28T04:08:00;28.37;;;20.00;;
1344;SDS011;15375;48.540;9.268;2024-02-28T04:10:25;32.77;;;22.30;;
1344;SDS011;15375;48.540;9.268;2024-02-28T04:12:51;31.70;;;20.50;;
1344;SDS011;15375;48.540;9.268;2024-02-28T04:15:16;28.90;;;21.00;;
1344;SDS011;15375;48.540;9.268;2024-02-28T04:17:41;33.07;;;20.80;;
1344;SDS011;15375;48.540;9.268;2024-02-28T04:20:10;31.13;;;21.40;;
1344;SDS011;15375;48.540;9.268;2024-02-28T04:22:36;29.47;;;20.80;;
1344;SDS011;15375;48.540;9.268;2024-02-28T04:25:02;30.23;;;20.80;;
1344;SDS011;15375;48.540;9.268;2024-02-28T04:27:32;30.03;;;19.97;;
1344;SDS011;15375;48.540;9.268;2024-02-28T04:29:57;35.80;;;22.57;;
1344;SDS011;15375;48.540;9.268;2024-02-28T04:32:22;32.30;;;21.07;;
1344;SDS011;15375;48.540;9.268;2024-02-28T04:34:48;32.63;;;23.07;;
1344;SDS011;15375;48.540;9.268;2024-02-28T04:37:13;38.53;;;20.93;;
1344;SDS011;15375;48.540;9.268;2024-02-28T04:39:39;30.97;;;21.73;;
1344;SDS011;15375;48.540;9.268;2024-02-28T04:42:05;34.90;;;21.63;;
1344;SDS011;15375;48.540;9.268;2024-02-28T04:44:30;33.07;;;21.70;;
1344;SDS011;15375;48.540;9.268;2024-02-28T04:46:56;35.00;;;22.83;;
1344;SDS011;15375;48.540;9.268;2024-02-28T04:49:21;35.57;;;22.33;;
1344;SDS011;15375;48.540;9.268;2024-02-28T04:51:48;38.40;;;22.40;;
1344;SDS011;15375;48.540;9.268;2024-02-28T04:54:13;38.47;;;23.03;;
1344;SDS011;15375;48.540;9.268;2024-02-28T04:56:41;36.43;;;21.67;;
1344;SDS011;15375;48.540;9.268;2024-02-28T04:59:13;36.43;;;24.60;;
1344;SDS011;15375;48.540;9.268;2024-02-28T05:01:39;38.20;;;22.37;;
1344;SDS011;15375;48.540;9.268;2024-02-28T05:04:07;36.30;;;22.03;;
1344;SDS011;15375;48.540;9.268;2024-02-28T05:06:33;35.97;;;21.00;;
1344;SDS011;15375;48.540;9.268;2024-02-28T05:08:58;37.80;;;22.53;;
1344;SDS011;15375;48.540;9.268;2024-02-28T05:11:24;32.40;;;20.03;;
1344;SDS011;15375;48.540;9.268;2024-02-28T05:13:49;33.93;;;21.13;;
1344;SDS011;15375;48.540;9.268;2024-02-28T05:16:15;29.53;;;19.50;;
1344;SDS011;15375;48.540;9.268;2024-02-28T05:18:41;35.60;;;21.90;;
1344;SDS011;15375;48.540;9.268;2024-02-28T05:21:07;34.27;;;22.33;;
1344;SDS011;15375;48.540;9.268;2024-02-28T05:23:32;35.13;;;22.37;;
1344;SDS011;15375;48.540;9.268;2024-02-28T05:25:58;32.97;;;21.53;;
1344;SDS011;15375;48.540;9.268;2024-02-28T05:28:29;35.30;;;21.47;;
1344;SDS011;15375;48.540;9.268;2024-02-28T05:30:58;35.90;;;21.60;;
1344;SDS011;15375;48.540;9.268;2024-02-28T05:33:24;36.73;;;22.63;;
1344;SDS011;15375;48.540;9.268;2024-02-28T05:35:49;29.17;;;19.90;;
1344;SDS011;15375;48.540;9.268;2024-02-28T05:38:15;39.17;;;24.03;;
1344;SDS011;15375;48.540;9.268;2024-02-28T05:40:43;37.77;;;20.87;;
1344;SDS011;15375;48.540;9.268;2024-02-28T05:43:09;34.60;;;21.93;;
1344;SDS011;15375;48.540;9.268;2024-02-28T05:45:34;29.90;;;20.60;;
1344;SDS011;15375;48.540;9.268;2024-02-28T05:47:59;33.07;;;21.43;;
1344;SDS011;15375;48.540;9.268;2024-02-28T05:50:25;30.97;;;19.63;;
1344;SDS011;15375;48.540;9.268;2024-02-28T05:52:50;30.63;;;20.30;;
1344;SDS011;15375;48.540;9.268;2024-02-28T05:55:16;34.33;;;20.73;;
1344;SDS011;15375;48.540;9.268;2024-02-28T05:57:42;33.60;;;21.30;;
1344;SDS011;15375;48.540;9.268;2024-02-28T06:00:07;28.40;;;20.73;;
1344;SDS011;15375;48.540;9.268;2024-02-28T06:02:36;37.90;;;22.07;;
1344;SDS011;15375;48.540;9.268;2024-02-28T06:05:02;32.67;;;22.00;;
1344;SDS011;15375;48.540;9.268;2024-02-28T06:07:28;36.13;;;20.97;;
1344;SDS011;15375;48.540;9.268;2024-02-28T06:09:53;30.40;;;20.97;;
1344;SDS011;15375;48.540;9.268;2024-02-28T06:12:21;33.23;;;21.37;;
1344;SDS011;15375;48.540;9.268;2024-02-28T06:14:46;35.53;;;21.03;;
1344;SDS011;15375;48.540;9.268;2024-02-28T06:17:12;33.70;;;20.33;;
1344;SDS011;15375;48.540;9.268;2024-02-28T06:19:38;30.73;;;20.87;;
1344;SDS011;15375;48.540;9.268;2024-02-28T06:22:03;33.47;;;21.13;;
1344;SDS011;15375;48.540;9.268;2024-02-28T06:24:29;30.23;;;20.63;;
1344;SDS011;15375;48.540;9.268;2024-02-28T06:26:54;27.93;;;19.77;;
1344;SDS011;15375;48.540;9.268;2024-02-28T06:29:20;35.00;;;21.07;;
1344;SDS011;15375;48.540;9.268;2024-02-28T06:31:50;34.07;;;21.40;;
1344;SDS011;15375;48.540;9.268;2024-02-28T06:34:16;32.10;;;22.00;;
1344;SDS011;15375;48.540;9.268;2024-02-28T06:36:42;35.57;;;21.57;;
1344;SDS011;15375;48.540;9.268;2024-02-28T06:39:07;37.47;;;22.77;;
1344;SDS011;15375;48.540;9.268;2024-02-28T06:41:33;37.47;;;24.20;;
1344;SDS011;15375;48.540;9.268;2024-02-28T06:43:58;39.70;;;22.20;;
1344;SDS011;15375;48.540;9.268;2024-02-28T06:46:24;35.47;;;21.47;;
1344;SDS011;15375;48.540;9.268;2024-02-28T06:48:49;34.63;;;20.73;;
1344;SDS011;15375;48.540;9.268;2024-02-28T06:51:16;36.07;;;23.30;;
1344;SDS011;15375;48.540;9.268;2024-02-28T06:53:42;32.63;;;21.87;;
1344;SDS011;15375;48.540;9.268;2024-02-28T06:56:07;38.20;;;23.57;;
1344;SDS011;15375;48.540;9.268;2024-02-28T06:58:33;37.80;;;22.13;;
1344;SDS011;15375;48.540;9.268;2024-02-28T07:00:58;38.63;;;21.83;;
1344;SDS011;15375;48.540;9.268;2024-02-28T07:03:23;31.93;;;20.73;;
1344;SDS011;15375;48.540;9.268;2024-02-28T07:05:49;32.57;;;22.87;;
1344;SDS011;15375;48.540;9.268;2024-02-28T07:08:14;35.77;;;23.37;;
1344;SDS011;15375;48.540;9.268;2024-02-28T07:10:40;31.97;;;22.53;;
1344;SDS011;15375;48.540;9.268;2024-02-28T07:13:11;38.57;;;23.37;;
1344;SDS011;15375;48.540;9.268;2024-02-28T07:15:37;39.30;;;22.80;;
1344;SDS011;15375;48.540;9.268;2024-02-28T07:18:03;37.67;;;23.00;;
1344;SDS011;15375;48.540;9.268;2024-02-28T07:20:29;30.63;;;21.07;;
1344;SDS011;15375;48.540;9.268;2024-02-28T07:22:54;34.47;;;20.80;;
1344;SDS011;15375;48.540;9.268;2024-02-28T07:25:19;33.43;;;20.60;;
1344;SDS011;15375;48.540;9.268;2024-02-28T07:27:45;34.60;;;21.70;;
1344;SDS011;15375;48.540;9.268;2024-02-28T07:30:10;39.23;;;24.13;;
1344;SDS011;15375;48.540;9.268;2024-02-28T07:32:37;36.23;;;20.53;;
1344;SDS011;15375;48.540;9.268;2024-02-28T07:35:03;29.40;;;19.07;;
1344;SDS011;15375;48.540;9.268;2024-02-28T07:37:29;35.50;;;20.60;;
1344;SDS011;15375;48.540;9.268;2024-02-28T07:39:54;31.40;;;20.13;;
1344;SDS011;15375;48.540;9.268;2024-02-28T07:42:20;35.23;;;20.67;;
1344;SDS011;15375;48.540;9.268;2024-02-28T07:44:45;33.93;;;20.60;;
1344;SDS011;15375;48.540;9.268;2024-02-28T07:47:10;31.07;;;19.50;;
1344;SDS011;15375;48.540;9.268;2024-02-28T07:49:36;35.00;;;21.73;;
1344;SDS011;15375;48.540;9.268;2024-02-28T07:52:01;33.90;;;21.63;;
1344;SDS011;15375;48.540;9.268;2024-02-28T07:54:26;31.80;;;21.37;;
1344;SDS011;15375;48.540;9.268;2024-02-28T07:56:52;34.10;;;20.93;;
1344;SDS011;15375;48.540;9.268;2024-02-28T07:59:17;28.70;;;21.00;;
1344;SDS011;15375;48.540;9.268;2024-02-28T08:01:43;30.30;;;20.40;;
1344;SDS011;15375;48.540;9.268;2024-02-28T08:04:09;32.70;;;20.93;;
1344;SDS011;15375;48.540;9.268;2024-02-28T08:06:35;38.83;;;21.90;;
1344;SDS011;15375;48.540;9.268;2024-02-28T08:09:00;38.03;;;20.77;;
1344;SDS011;15375;48.540;9.268;2024-02-28T08:11:26;34.37;;;20.83;;
1344;SDS011;15375;48.540;9.268;2024-02-28T08:13:51;27.60;;;19.53;;
1344;SDS011;15375;48.540;9.268;2024-02-28T08:16:17;30.73;;;19.10;;
1344;SDS011;15375;48.540;9.268;2024-02-28T08:18:42;32.00;;;18.70;;
1344;SDS011;15375;48.540;9.268;2024-02-28T08:21:08;31.00;;;19.10;;
1344;SDS011;15375;48.540;9.268;2024-02-28T08:23:34;30.03;;;20.70;;
1344;SDS011;15375;48.540;9.268;2024-02-28T08:25:59;25.30;;;18.00;;
1344;SDS011;15375;48.540;9.268;2024-02-28T08:28:24;26.17;;;18.63;;
1344;SDS011;15375;48.540;9.268;2024-02-28T08:30:50;29.03;;;18.73;;
1344;SDS011;15375;48.540;9.268;2024-02-28T08:33:16;31.37;;;19.20;;
1344;SDS011;15375;48.540;9.268;2024-02-28T08:35:41;31.60;;;19.37;;
1344;SDS011;15375;48.540;9.268;2024-02-28T08:38:08;27.17;;;18.10;;
1344;SDS011;15375;48.540;9.268;2024-02-28T08:40:33;30.73;;;18.67;;
1344;SDS011;15375;48.540;9.268;2024-02-28T08:42:58;34.33;;;20.87;;
1344;SDS011;15375;48.540;9.268;2024-02-28T08:45:24;27.23;;;18.20;;
1344;SDS011;15375;48.540;9.268;2024-02-28T08:47:49;31.07;;;19.33;;
1344;SDS011;15375;48.540;9.268;2024-02-28T08:50:14;30.23;;;19.70;;
1344;SDS011;15375;48.540;9.268;2024-02-28T08:52:40;26.97;;;18.23;;
1344;SDS011;15375;48.540;9.268;2024-02-28T08:55:05;28.03;;;18.10;;
1344;SDS011;15375;48.540;9.268;2024-02-28T08:57:31;31.00;;;18.60;;
1344;SDS011;15375;48.540;9.268;2024-02-28T08:59:56;28.30;;;19.27;;
1344;SDS011;15375;48.540;9.268;2024-02-28T09:02:22;26.07;;;17.80;;
1344;SDS011;15375;48.540;9.268;2024-02-28T09:04:47;28.27;;;17.40;;
1344;SDS011;15375;48.540;9.268;2024-02-28T09:07:17;26.60;;;19.00;;
1344;SDS011;15375;48.540;9.268;2024-02-28T09:09:45;26.07;;;18.50;;
1344;SDS011;15375;48.540;9.268;2024-02-28T09:12:11;27.07;;;18.60;;
1344;SDS011;15375;48.540;9.268;2024-02-28T09:14:36;27.87;;;18.57;;
1344;SDS011;15375;48.540;9.268;2024-02-28T09:17:02;25.90;;;17.50;;
1344;SDS011;15375;48.540;9.268;2024-02-28T09:19:31;30.70;;;19.33;;
1344;SDS011;15375;48.540;9.268;2024-02-28T09:21:56;26.70;;;19.10;;
1344;SDS011;15375;48.540;9.268;2024-02-28T09:24:23;30.23;;;19.27;;
1344;SDS011;15375;48.540;9.268;2024-02-28T09:26:48;32.43;;;19.63;;
1344;SDS011;15375;48.540;9.268;2024-02-28T09:29:14;28.13;;;18.20;;
1344;SDS011;15375;48.540;9.268;2024-02-28T09:31:39;26.80;;;19.23;;
1344;SDS011;15375;48.540;9.268;2024-02-28T09:34:04;28.70;;;17.90;;
1344;SDS011;15375;48.540;9.268;2024-02-28T09:36:41;27.57;;;17.47;;
1344;SDS011;15375;48.540;9.268;2024-02-28T09:39:07;28.20;;;19.70;;
1344;SDS011;15375;48.540;9.268;2024-02-28T09:41:33;26.40;;;17.63;;
1344;SDS011;15375;48.540;9.268;2024-02-28T09:43:58;25.93;;;16.90;;
1344;SDS011;15375;48.540;9.268;2024-02-28T09:46:26;28.10;;;20.00;;
1344;SDS011;15375;48.540;9.268;2024-02-28T09:48:52;29.63;;;18.17;;
1344;SDS011;15375;48.540;9.268;2024-02-28T09:51:20;27.07;;;17.23;;
1344;SDS011;15375;48.540;9.268;2024-02-28T09:53:47;24.53;;;16.90;;
1344;SDS011;15375;48.540;9.268;2024-02-28T09:56:12;25.57;;;17.53;;
1344;SDS011;15375;48.540;9.268;2024-02-28T09:58:38;26.93;;;18.53;;
1344;SDS011;15375;48.540;9.268;2024-02-28T10:01:04;25.43;;;17.20;;
1344;SDS011;15375;48.540;9.268;2024-02-28T10:03:34;31.20;;;18.63;;
1344;SDS011;15375;48.540;9.268;2024-02-28T10:06:01;33.07;;;18.63;;
1344;SDS011;15375;48.540;9.268;2024-02-28T10:08:27;25.50;;;15.53;;
1344;SDS011;15375;48.540;9.268;2024-02-28T10:10:54;31.10;;;17.50;;
1344;SDS011;15375;48.540;9.268;2024-02-28T10:13:21;31.00;;;19.73;;
1344;SDS011;15375;48.540;9.268;2024-02-28T10:15:47;25.77;;;18.00;;
1344;SDS011;15375;48.540;9.268;2024-02-28T10:18:14;34.83;;;19.07;;
1344;SDS011;15375;48.540;9.268;2024-02-28T10:20:39;25.63;;;16.37;;
1344;SDS011;15375;48.540;9.268;2024-02-28T10:23:05;26.43;;;15.13;;
1344;SDS011;15375;48.540;9.268;2024-02-28T10:25:47;31.80;;;18.43;;
1344;SDS011;15375;48.540;9.268;2024-02-28T10:28:13;26.60;;;17.43;;
1344;SDS011;15375;48.540;9.268;2024-02-28T10:30:40;26.37;;;17.80;;
1344;SDS011;15375;48.540;9.268;2024-02-28T10:33:12;27.40;;;16.30;;
1344;SDS011;15375;48.540;9.268;2024-02-28T10:35:39;29.93;;;17.37;;
1344;SDS011;15375;48.540;9.268;2024-02-28T10:38:06;25.23;;;16.40;;
1344;SDS011;15375;48.540;9.268;2024-02-28T10:40:31;28.80;;;16.53;;
1344;SDS011;15375;48.540;9.268;2024-02-28T10:42:57;31.37;;;17.97;;
1344;SDS011;15375;48.540;9.268;2024-02-28T10:45:23;22.40;;;15.07;;
1344;SDS011;15375;48.540;9.268;2024-02-28T10:47:50;21.43;;;14.67;;
1344;SDS011;15375;48.540;9.268;2024-02-28T10:50:16;21.90;;;16.00;;
1344;SDS011;15375;48.540;9.268;2024-02-28T10:52:45;23.97;;;16.87;;
1344;SDS011;15375;48.540;9.268;2024-02-28T10:55:17;28.73;;;18.17;;
1344;SDS011;15375;48.540;9.268;2024-02-28T10:57:58;27.93;;;18.33;;
1344;SDS011;15375;48.540;9.268;2024-02-28T11:00:28;27.13;;;17.17;;
1344;SDS011;15375;48.540;9.268;2024-02-28T11:02:55;28.27;;;17.17;;
1344;SDS011;15375;48.540;9.268;2024-02-28T11:05:23;24.77;;;16.30;;
1344;SDS011;15375;48.540;9.268;2024-02-28T11:07:50;25.50;;;16.77;;
1344;SDS011;15375;48.540;9.268;2024-02-28T11:10:17;25.37;;;16.70;;
1344;SDS011;15375;48.540;9.268;2024-02-28T11:12:43;24.03;;;15.97;;
1344;SDS011;15375;48.540;9.268;2024-02-28T11:15:15;24.93;;;15.63;;
1344;SDS011;15375;48.540;9.268;2024-02-28T11:17:42;24.03;;;16.03;;
1344;SDS011;15375;48.540;9.268;2024-02-28T11:20:11;25.10;;;16.43;;
1344;SDS011;15375;48.540;9.268;2024-02-28T11:22:37;26.00;;;16.00;;
1344;SDS011;15375;48.540;9.268;2024-02-28T11:25:04;29.53;;;17.10;;
1344;SDS011;15375;48.540;9.268;2024-02-28T11:27:31;27.13;;;16.13;;
1344;SDS011;15375;48.540;9.268;2024-02-28T11:29:56;23.87;;;16.60;;
1344;SDS011;15375;48.540;9.268;2024-02-28T11:32:24;24.40;;;15.37;;
1344;SDS011;15375;48.540;9.268;2024-02-28T11:34:50;22.73;;;15.37;;
1344;SDS011;15375;48.540;9.268;2024-02-28T11:37:16;26.13;;;15.40;;
1344;SDS011;15375;48.540;9.268;2024-02-28T11:39:49;24.80;;;17.73;;
1344;SDS011;15375;48.540;9.268;2024-02-28T11:42:16;28.87;;;17.30;;
1344;SDS011;15375;48.540;9.268;2024-02-28T11:44:41;24.57;;;16.93;;
1344;SDS011;15375;48.540;9.268;2024-02-28T11:47:10;24.43;;;16.50;;
1344;SDS011;15375;48.540;9.268;2024-02-28T11:49:39;24.97;;;16.33;;
1344;SDS011;15375;48.540;9.268;2024-02-28T11:52:04;27.93;;;16.60;;
1344;SDS011;15375;48.540;9.268;2024-02-28T11:54:31;23.17;;;13.70;;
1344;SDS011;15375;48.540;9.268;2024-02-28T11:56:56;26.83;;;16.03;;
1344;SDS011;15375;48.540;9.268;2024-02-28T11:59:21;25.70;;;16.90;;
1344;SDS011;15375;48.540;9.268;2024-02-28T12:01:47;26.57;;;16.30;;
1344;SDS011;15375;48.540;9.268;2024-02-28T12:04:12;27.70;;;17.63;;
1344;SDS011;15375;48.540;9.268;2024-02-28T12:06:38;27.40;;;16.60;;
1344;SDS011;15375;48.540;9.268;2024-02-28T12:09:09;26.33;;;15.60;;
1344;SDS011;15375;48.540;9.268;2024-02-28T12:11:37;23.50;;;15.40;;
1344;SDS011;15375;48.540;9.268;2024-02-28T12:14:06;27.87;;;15.80;;
1344;SDS011;15375;48.540;9.268;2024-02-28T12:16:34;24.20;;;16.10;;
1344;SDS011;15375;48.540;9.268;2024-02-28T12:19:03;25.00;;;15.00;;
1344;SDS011;15375;48.540;9.268;2024-02-28T12:21:29;21.60;;;15.20;;
1344;SDS011;15375;48.540;9.268;2024-02-28T12:23:56;26.40;;;15.70;;
1344;SDS011;15375;48.540;9.268;2024-02-28T12:26:21;28.93;;;18.00;;
1344;SDS011;15375;48.540;9.268;2024-02-28T12:28:47;24.20;;;16.80;;
1344;SDS011;15375;48.540;9.268;2024-02-28T12:31:12;23.17;;;15.47;;
1344;SDS011;15375;48.540;9.268;2024-02-28T12:33:38;24.13;;;16.40;;
1344;SDS011;15375;48.540;9.268;2024-02-28T12:36:04;28.50;;;16.10;;
1344;SDS011;15375;48.540;9.268;2024-02-28T12:38:30;27.90;;;16.23;;
1344;SDS011;15375;48.540;9.268;2024-02-28T12:40:56;32.20;;;18.23;;
1344;SDS011;15375;48.540;9.268;2024-02-28T12:43:22;22.50;;;14.57;;
1344;SDS011;15375;48.540;9.268;2024-02-28T12:45:47;26.50;;;16.87;;
1344;SDS011;15375;48.540;9.268;2024-02-28T12:48:12;21.50;;;14.43;;
1344;SDS011;15375;48.540;9.268;2024-02-28T12:50:38;22.93;;;15.23;;
1344;SDS011;15375;48.540;9.268;2024-02-28T12:53:03;24.17;;;15.43;;
1344;SDS011;15375;48.540;9.268;2024-02-28T12:55:28;26.23;;;16.73;;
1344;SDS011;15375;48.540;9.268;2024-02-28T12:57:54;26.37;;;16.97;;
1344;SDS011;15375;48.540;9.268;2024-02-28T13:00:20;27.60;;;17.00;;
1344;SDS011;15375;48.540;9.268;2024-02-28T13:02:46;29.97;;;16.63;;
1344;SDS011;15375;48.540;9.268;2024-02-28T13:05:12;25.77;;;16.97;;
1344;SDS011;15375;48.540;9.268;2024-02-28T13:07:38;27.27;;;18.13;;
1344;SDS011;15375;48.540;9.268;2024-02-28T13:10:04;24.80;;;16.70;;
1344;SDS011;15375;48.540;9.268;2024-02-28T13:12:31;27.87;;;16.87;;
1344;SDS011;15375;48.540;9.268;2024-02-28T13:14:57;27.30;;;17.77;;
1344;SDS011;15375;48.540;9.268;2024-02-28T13:17:23;23.50;;;16.33;;
1344;SDS011;15375;48.540;9.268;2024-02-28T13:19:48;27.17;;;17.00;;
1344;SDS011;15375;48.540;9.268;2024-02-28T13:22:14;22.17;;;15.83;;
1344;SDS011;15375;48.540;9.268;2024-02-28T13:24:39;23.40;;;14.67;;
1344;SDS011;15375;48.540;9.268;2024-02-28T13:27:04;27.47;;;15.70;;
1344;SDS011;15375;48.540;9.268;2024-02-28T13:29:30;22.20;;;16.80;;
1344;SDS011;15375;48.540;9.268;2024-02-28T13:31:57;21.07;;;15.40;;
1344;SDS011;15375;48.540;9.268;2024-02-28T13:34:23;25.37;;;16.20;;
1344;SDS011;15375;48.540;9.268;2024-02-28T13:36:48;25.60;;;16.17;;
1344;SDS011;15375;48.540;9.268;2024-02-28T13:39:15;21.23;;;15.70;;
1344;SDS011;15375;48.540;9.268;2024-02-28T13:41:41;22.03;;;14.43;;
1344;SDS011;15375;48.540;9.268;2024-02-28T13:44:06;23.97;;;14.07;;
1344;SDS011;15375;48.540;9.268;2024-02-28T13:46:32;24.03;;;16.40;;
1344;SDS011;15375;48.540;9.268;2024-02-28T13:48:58;22.10;;;13.40;;
1344;SDS011;15375;48.540;9.268;2024-02-28T13:51:23;26.00;;;16.50;;
1344;SDS011;15375;48.540;9.268;2024-02-28T13:53:49;21.80;;;14.70;;
1344;SDS011;15375;48.540;9.268;2024-02-28T13:56:17;23.60;;;14.40;;
1344;SDS011;15375;48.540;9.268;2024-02-28T13:58:42;22.87;;;15.47;;
1344;SDS011;15375;48.540;9.268;2024-02-28T14:01:08;22.50;;;14.83;;
1344;SDS011;15375;48.540;9.268;2024-02-28T14:03:34;22.57;;;14.60;;
1344;SDS011;15375;48.540;9.268;2024-02-28T14:05:59;21.83;;;15.23;;
1344;SDS011;15375;48.540;9.268;2024-02-28T14:08:25;24.80;;;16.37;;
1344;SDS011;15375;48.540;9.268;2024-02-28T14:10:51;22.43;;;15.10;;
1344;SDS011;15375;48.540;9.268;2024-02-28T14:13:16;23.27;;;15.37;;
1344;SDS011;15375;48.540;9.268;2024-02-28T14:15:43;22.40;;;15.27;;
1344;SDS011;15375;48.540;9.268;2024-02-28T14:18:10;24.90;;;16.40;;
1344;SDS011;15375;48.540;9.268;2024-02-28T14:20:36;26.30;;;15.60;;
1344;SDS011;15375;48.540;9.268;2024-02-28T14:23:03;22.33;;;15.00;;
1344;SDS011;15375;48.540;9.268;2024-02-28T14:25:28;22.27;;;16.47;;